Broken Hill Airport


Codes: YBHI/BHQ
Name: Broken Hill Airport
City: Broken Hill
Country: Australia
Elevation: 958 ft.
Wikipedia:

Photos at Broken Hill Airport


   Photos courtesy of SpottingLog. You can add your own sightings and photos by signing up for a free trial today.



No photos found.

Weather at Broken Hill Airport


Time (UTC)DescriptionTempratureWindCloud coverageVisibilityPressureHumidity
21-Feb-2024 03:00Broken Clouds34°C13 mph, N63%10000m1009hPa15%
21-Feb-2024 06:00Broken Clouds35°C11 mph, NW63%10000m1008hPa16%
21-Feb-2024 09:00Scattered Clouds33°C9 mph, NW29%10000m1008hPa19%
21-Feb-2024 12:00Few Clouds30°C9 mph, N18%10000m1009hPa23%
21-Feb-2024 15:00Few Clouds29°C9 mph, N19%10000m1008hPa25%
21-Feb-2024 18:00Few Clouds28°C9 mph, N13%10000m1008hPa27%
21-Feb-2024 21:00Clear Sky26°C11 mph, N5%10000m1010hPa38%
22-Feb-2024 00:00Clear Sky34°C16 mph, NW4%10000m1010hPa20%
22-Feb-2024 03:00Clear Sky37°C11 mph, NW0%10000m1008hPa17%
22-Feb-2024 06:00Clear Sky38°C16 mph, NW0%10000m1005hPa16%
22-Feb-2024 09:00Clear Sky36°C13 mph, NW0%10000m1005hPa18%
22-Feb-2024 12:00Clear Sky33°C18 mph, NW0%10000m1006hPa23%
22-Feb-2024 15:00Clear Sky31°C18 mph, NW0%10000m1006hPa26%
22-Feb-2024 18:00Clear Sky20°C18 mph, S0%10000m1009hPa60%
22-Feb-2024 21:00Clear Sky17°C22 mph, S0%10000m1011hPa64%
23-Feb-2024 00:00Clear Sky21°C22 mph, S0%10000m1013hPa43%
23-Feb-2024 03:00Clear Sky26°C20 mph, S0%10000m1012hPa26%
23-Feb-2024 06:00Clear Sky28°C20 mph, S0%10000m1011hPa20%
23-Feb-2024 09:00Clear Sky25°C20 mph, S0%10000m1012hPa23%
23-Feb-2024 12:00Clear Sky22°C18 mph, S0%10000m1015hPa30%
23-Feb-2024 15:00Clear Sky17°C20 mph, S0%10000m1016hPa41%
23-Feb-2024 18:00Clear Sky14°C18 mph, S0%10000m1016hPa52%
23-Feb-2024 21:00Clear Sky14°C16 mph, S0%10000m1018hPa50%
24-Feb-2024 00:00Clear Sky20°C16 mph, SE0%10000m1018hPa35%
24-Feb-2024 03:00Clear Sky25°C13 mph, SE0%10000m1016hPa22%
24-Feb-2024 06:00Clear Sky28°C13 mph, SE0%10000m1013hPa15%
24-Feb-2024 09:00Clear Sky26°C11 mph, SE0%10000m1014hPa15%
24-Feb-2024 12:00Clear Sky22°C9 mph, SE0%10000m1016hPa20%
24-Feb-2024 15:00Clear Sky20°C7 mph, SE0%10000m1015hPa23%
24-Feb-2024 18:00Clear Sky18°C4 mph, SE0%10000m1015hPa26%
24-Feb-2024 21:00Clear Sky19°C9 mph, S0%10000m1016hPa26%
25-Feb-2024 00:00Clear Sky25°C11 mph, S0%10000m1017hPa18%
25-Feb-2024 03:00Clear Sky30°C9 mph, S2%10000m1014hPa12%
25-Feb-2024 06:00Clear Sky32°C11 mph, S2%10000m1012hPa9%
25-Feb-2024 09:00Few Clouds29°C11 mph, SE23%10000m1013hPa13%
25-Feb-2024 12:00Few Clouds25°C9 mph, SE12%10000m1014hPa18%
25-Feb-2024 15:00Clear Sky23°C9 mph, S0%10000m1014hPa20%
25-Feb-2024 18:00Clear Sky18°C13 mph, S0%10000m1015hPa34%
25-Feb-2024 21:00Few Clouds17°C13 mph, S24%10000m1016hPa45%
26-Feb-2024 00:00Few Clouds25°C16 mph, S16%10000m1017hPa24%